createdAt,value
2023-12-11T00:04:44.128Z,-5.31
2023-12-11T00:10:08.366Z,-5.28
2023-12-11T00:15:12.123Z,-5.31
2023-12-11T00:20:49.964Z,-5.48
2023-12-11T00:25:52.597Z,-5.32
2023-12-11T00:30:55.844Z,-5.25
2023-12-11T00:35:58.475Z,-5.34
2023-12-11T00:41:01.186Z,-5.33
2023-12-11T00:46:04.233Z,-5.32
2023-12-11T00:51:07.090Z,-5.31
2023-12-11T00:56:09.970Z,-5.48
2023-12-11T01:01:12.922Z,-5.52
2023-12-11T01:06:15.823Z,-5.51
2023-12-11T01:11:18.456Z,-5.36
2023-12-11T01:16:21.405Z,-5.56
2023-12-11T01:21:24.198Z,-5.59
2023-12-11T01:26:26.971Z,-5.64
2023-12-11T01:31:29.599Z,-5.52
2023-12-11T01:36:32.285Z,-5.46
2023-12-11T01:41:35.077Z,-5.45
2023-12-11T01:46:37.750Z,-5.54
2023-12-11T01:51:40.516Z,-5.60
2023-12-11T01:56:43.933Z,-5.66
2023-12-11T02:01:46.966Z,-5.78
2023-12-11T02:06:52.182Z,-5.84
2023-12-11T02:11:57.080Z,-5.79
2023-12-11T02:17:00.469Z,-5.93
2023-12-11T02:22:03.427Z,-5.89
2023-12-11T02:27:06.325Z,-5.91
2023-12-11T02:32:09.046Z,-6.10
2023-12-11T02:37:11.826Z,-6.09
2023-12-11T02:42:14.661Z,-6.20
2023-12-11T02:47:17.316Z,-6.11
2023-12-11T02:52:20.050Z,-6.05
2023-12-11T02:57:22.812Z,-6.11
2023-12-11T03:02:25.545Z,-6.23
2023-12-11T03:07:28.603Z,-6.25
2023-12-11T03:12:31.534Z,-6.31
2023-12-11T03:17:34.277Z,-6.42
2023-12-11T03:22:37.014Z,-6.45
2023-12-11T03:27:39.703Z,-6.42
2023-12-11T03:32:42.541Z,-6.37
2023-12-11T03:37:45.253Z,-6.32
2023-12-11T03:42:48.042Z,-6.39
2023-12-11T03:47:50.985Z,-6.46
2023-12-11T03:52:53.757Z,-6.52
2023-12-11T03:57:56.610Z,-6.63
2023-12-11T04:02:59.391Z,-6.67
2023-12-11T04:08:02.098Z,-6.71
2023-12-11T04:13:04.792Z,-6.39
2023-12-11T04:18:07.527Z,-6.50
2023-12-11T04:23:10.370Z,-6.65
2023-12-11T04:28:13.125Z,-6.85
2023-12-11T04:33:15.871Z,-6.63
2023-12-11T04:38:18.620Z,-6.72
2023-12-11T04:43:21.364Z,-6.79
2023-12-11T04:48:24.143Z,-6.71
2023-12-11T04:53:26.888Z,-6.74
2023-12-11T04:58:29.622Z,-6.65
2023-12-11T05:03:32.427Z,-6.80
2023-12-11T05:08:35.140Z,-6.67
2023-12-11T05:13:37.822Z,-6.66
2023-12-11T05:18:40.785Z,-6.41
2023-12-11T05:23:43.581Z,-6.60
2023-12-11T05:28:46.267Z,-6.58
2023-12-11T05:33:49.169Z,-6.38
2023-12-11T05:38:52.180Z,-6.47
2023-12-11T05:43:54.972Z,-6.27
2023-12-11T05:48:57.683Z,-6.40
2023-12-11T05:54:00.464Z,-6.73
2023-12-11T05:59:03.662Z,-6.69
2023-12-11T06:04:06.455Z,-6.57
2023-12-11T06:09:09.250Z,-6.51
2023-12-11T06:14:12.064Z,-6.46
2023-12-11T06:19:14.967Z,-6.40
2023-12-11T06:24:17.982Z,-6.23
2023-12-11T06:29:20.671Z,-5.88
2023-12-11T06:34:23.538Z,-5.60
2023-12-11T06:39:26.960Z,-5.17
2023-12-11T06:44:29.804Z,-5.41
2023-12-11T06:49:33.519Z,-5.49
2023-12-11T06:54:36.332Z,-5.97
2023-12-11T06:59:39.369Z,-5.77
2023-12-11T07:04:43.555Z,-5.93
2023-12-11T07:09:47.872Z,-5.52
2023-12-11T07:14:51.059Z,-5.73
2023-12-11T07:19:53.909Z,-5.81
2023-12-11T07:24:56.742Z,-5.78
2023-12-11T07:29:59.533Z,-5.60
2023-12-11T07:35:02.524Z,-5.54
2023-12-11T07:40:07.615Z,-5.42
2023-12-11T07:45:11.025Z,-4.95
2023-12-11T07:50:13.818Z,-4.48
2023-12-11T07:55:16.739Z,-4.40
2023-12-11T08:00:21.062Z,-4.41
2023-12-11T08:05:23.811Z,-4.28
2023-12-11T08:10:26.880Z,-4.17
2023-12-11T08:15:29.687Z,-3.85
2023-12-11T08:20:32.395Z,-3.54
2023-12-11T08:25:35.096Z,-2.98
2023-12-11T08:30:37.810Z,-2.90
2023-12-11T08:35:40.627Z,-1.95
2023-12-11T08:40:44.528Z,-1.91
2023-12-11T08:45:47.324Z,-0.32
2023-12-11T08:50:53.862Z,0.74
2023-12-11T08:55:56.693Z,2.35
2023-12-11T09:00:59.791Z,0.82
2023-12-11T09:06:03.355Z,2.90
2023-12-11T09:11:06.289Z,1.57
2023-12-11T09:16:09.388Z,2.25
2023-12-11T09:21:12.166Z,2.67
2023-12-11T09:26:14.915Z,0.79
2023-12-11T09:31:20.426Z,-0.54
2023-12-11T09:36:23.268Z,-1.40
2023-12-11T09:41:30.803Z,-1.59
2023-12-11T09:46:42.845Z,-2.12
2023-12-11T09:51:45.771Z,-1.76
2023-12-11T09:56:49.681Z,-2.65
2023-12-11T10:01:53.114Z,-2.73
2023-12-11T10:06:56.097Z,-2.57
2023-12-11T10:12:04.456Z,-2.61
2023-12-11T10:17:19.098Z,-2.38
2023-12-11T10:22:32.592Z,-2.66
2023-12-11T10:27:35.312Z,-2.94
2023-12-11T10:32:38.333Z,-3.01
2023-12-11T10:37:43.726Z,-2.91
2023-12-11T10:42:57.793Z,-3.40
2023-12-11T10:48:01.719Z,-3.32
2023-12-11T10:53:07.482Z,-3.35
2023-12-11T10:58:14.147Z,-3.36
2023-12-11T11:03:18.321Z,-3.39
2023-12-11T11:08:37.265Z,-3.62
2023-12-11T11:14:11.118Z,-3.58
2023-12-11T11:19:13.872Z,-3.70
2023-12-11T11:24:27.673Z,-3.76
2023-12-11T11:29:50.714Z,-3.86
2023-12-11T11:34:53.645Z,-3.94
2023-12-11T11:40:07.251Z,-3.90
2023-12-11T11:45:11.380Z,-3.95
2023-12-11T11:50:20.768Z,-3.94
2023-12-11T11:55:29.860Z,-3.97
2023-12-11T12:00:37.475Z,-4.19
2023-12-11T12:05:56.903Z,-4.12
2023-12-11T12:11:01.094Z,-4.03
2023-12-11T12:16:04.521Z,-4.42
2023-12-11T12:21:09.725Z,-4.31
2023-12-11T12:26:13.379Z,-4.35
2023-12-11T12:31:20.515Z,-4.56
2023-12-11T12:36:26.619Z,-4.53
2023-12-11T12:41:31.192Z,-4.45
2023-12-11T12:46:41.956Z,-4.45
2023-12-11T12:51:49.973Z,-4.66
2023-12-11T12:57:45.427Z,-4.47
2023-12-11T13:02:50.930Z,-4.66
2023-12-11T13:08:00.003Z,-4.67
2023-12-11T13:13:13.101Z,-4.73
2023-12-11T13:18:17.042Z,-4.74
2023-12-11T13:23:20.088Z,-4.86
2023-12-11T13:28:22.969Z,-4.79
2023-12-11T13:33:29.340Z,-5.04
2023-12-11T13:38:32.579Z,-4.85
2023-12-11T13:43:36.362Z,-4.79
2023-12-11T13:48:40.342Z,-4.82
2023-12-11T13:53:52.717Z,-4.75
2023-12-11T14:00:18.557Z,-4.81
2023-12-11T14:12:12.347Z,-4.48
2023-12-11T14:24:37.035Z,-4.63
2023-12-11T14:29:39.848Z,-4.55
2023-12-11T14:34:43.968Z,-4.67
2023-12-11T14:39:51.488Z,-4.67
2023-12-11T14:44:55.291Z,-4.77
2023-12-11T14:50:01.934Z,-4.54
2023-12-11T14:55:08.556Z,-4.65
2023-12-11T15:00:12.664Z,-4.55
2023-12-11T15:05:17.021Z,-4.47
2023-12-11T15:10:20.387Z,-4.44
2023-12-11T15:15:23.369Z,-4.41
2023-12-11T15:20:26.311Z,-4.46
2023-12-11T15:25:29.294Z,-4.35
2023-12-11T15:37:53.759Z,-4.36
2023-12-11T15:42:57.588Z,-4.28
2023-12-11T15:48:03.040Z,-4.35
2023-12-11T15:53:16.999Z,-4.42
2023-12-11T16:04:51.149Z,-4.15
2023-12-11T16:09:54.449Z,-4.20
2023-12-11T16:14:58.015Z,-4.07
2023-12-11T16:20:01.323Z,-3.90
2023-12-11T16:25:08.137Z,-3.84
2023-12-11T16:30:11.665Z,-3.85
2023-12-11T16:35:14.864Z,-3.92
2023-12-11T16:40:18.954Z,-3.99
2023-12-11T16:46:26.642Z,-3.84
2023-12-11T16:52:03.728Z,-3.85
2023-12-11T16:57:06.668Z,-3.84
2023-12-11T17:02:10.398Z,-3.54
2023-12-11T17:07:15.985Z,-3.86
2023-12-11T17:12:18.857Z,-3.88
2023-12-11T17:17:21.758Z,-3.87
2023-12-11T17:22:24.605Z,-3.97
2023-12-11T17:27:27.622Z,-3.78
2023-12-11T17:32:30.976Z,-3.74
2023-12-11T17:37:33.864Z,-3.60
2023-12-11T17:42:36.593Z,-3.57
2023-12-11T17:47:39.381Z,-3.64
2023-12-11T17:52:42.235Z,-3.71
2023-12-11T17:57:45.125Z,-3.78
2023-12-11T18:02:48.498Z,-3.79
2023-12-11T18:07:51.295Z,-3.78
2023-12-11T18:12:54.136Z,-3.74
2023-12-11T18:17:57.156Z,-3.98
2023-12-11T18:23:02.178Z,-3.75
2023-12-11T18:28:05.010Z,-3.52
2023-12-11T18:33:07.881Z,-3.96
2023-12-11T18:38:10.700Z,-3.70
2023-12-11T18:43:13.482Z,-3.84
2023-12-11T18:48:16.400Z,-3.92
2023-12-11T18:53:19.442Z,-4.12
2023-12-11T18:58:22.464Z,-4.03
2023-12-11T19:03:25.313Z,-3.89
2023-12-11T19:08:28.088Z,-4.08
2023-12-11T19:13:30.838Z,-4.00
2023-12-11T19:18:33.720Z,-4.25
2023-12-11T19:23:37.387Z,-4.11
2023-12-11T19:28:40.122Z,-4.24
2023-12-11T19:33:42.829Z,-4.18
2023-12-11T19:38:46.389Z,-4.30
2023-12-11T19:43:49.247Z,-4.47
2023-12-11T19:48:52.137Z,-4.30
2023-12-11T19:53:54.945Z,-4.25
2023-12-11T19:58:57.684Z,-4.47
2023-12-11T20:04:00.674Z,-4.38
2023-12-11T20:09:03.536Z,-4.52
2023-12-11T20:14:06.207Z,-4.52
2023-12-11T20:19:09.970Z,-4.44
2023-12-11T20:24:15.242Z,-4.57
2023-12-11T20:29:18.601Z,-4.71
2023-12-11T20:34:21.347Z,-4.78
2023-12-11T20:39:24.137Z,-4.66
2023-12-11T20:44:26.871Z,-4.73
2023-12-11T20:49:29.761Z,-4.95
2023-12-11T20:54:32.998Z,-4.90
2023-12-11T20:59:35.778Z,-4.94
2023-12-11T21:04:38.539Z,-5.21
2023-12-11T21:09:43.890Z,-5.35
2023-12-11T21:14:46.684Z,-5.35
2023-12-11T21:19:49.365Z,-5.50
2023-12-11T21:24:52.134Z,-5.52
2023-12-11T21:29:54.889Z,-5.47
2023-12-11T21:34:57.684Z,-5.38
2023-12-11T21:40:00.540Z,-5.36
2023-12-11T21:45:03.299Z,-5.35
2023-12-11T21:50:06.746Z,-5.52
2023-12-11T21:55:09.791Z,-5.51
2023-12-11T22:00:12.960Z,-5.70
2023-12-11T22:05:15.853Z,-5.81
2023-12-11T22:10:19.386Z,-5.59
2023-12-11T22:15:22.038Z,-5.78
2023-12-11T22:20:25.262Z,-5.77
2023-12-11T22:25:27.959Z,-5.76
2023-12-11T22:30:30.807Z,-5.86
2023-12-11T22:35:33.448Z,-6.01
2023-12-11T22:40:37.429Z,-6.09
2023-12-11T22:45:40.112Z,-6.21
2023-12-11T22:50:43.004Z,-6.08
2023-12-11T22:55:45.746Z,-6.19
2023-12-11T23:00:48.604Z,-6.20
2023-12-11T23:05:51.392Z,-6.24
2023-12-11T23:10:54.949Z,-6.19
2023-12-11T23:15:58.254Z,-6.31
2023-12-11T23:21:00.987Z,-6.17
2023-12-11T23:26:05.685Z,-6.46
2023-12-11T23:31:09.552Z,-6.74
2023-12-11T23:36:13.140Z,-6.70
2023-12-11T23:41:15.958Z,-6.48
2023-12-11T23:46:18.982Z,-6.60
2023-12-11T23:51:21.786Z,-6.66
2023-12-11T23:56:24.578Z,-6.62
